Time;durP1;ratioP1;P1;durP2;ratioP2;P2;SDS_P1;SDS_P2;PMS_P1;PMS_P2;Temp;Humidity;BMP_temperature;BMP_pressure;BME280_temperature;BME280_humidity;BME280_pressure;Samples;Min_cycle;Max_cycle;Signal;HPM_P1;HPM_P2
2022/09/07 00:02:01;;;;;;;4.50;2.65;;;18.90;99.90;;;;;;5069076;28;20033;-86
2022/09/07 00:04:27;;;;;;;4.88;2.95;;;18.90;99.90;;;;;;5073837;28;20397;-80
2022/09/07 00:06:53;;;;;;;5.10;2.40;;;18.80;99.90;;;;;;5075049;28;20039;-80
2022/09/07 00:09:20;;;;;;;5.45;2.58;;;18.90;99.90;;;;;;5074634;28;20355;-80
2022/09/07 00:11:46;;;;;;;6.30;2.50;;;19.00;99.90;;;;;;5055420;28;20044;-80
2022/09/07 00:14:12;;;;;;;3.13;2.33;;;19.10;99.90;;;;;;5059025;28;20033;-80
2022/09/07 00:16:38;;;;;;;3.90;2.17;;;19.20;99.90;;;;;;5069921;28;20029;-79
2022/09/07 00:19:05;;;;;;;3.78;2.03;;;19.20;99.90;;;;;;5061629;28;20040;-84
2022/09/07 00:21:31;;;;;;;4.50;1.92;;;19.30;99.90;;;;;;5058030;28;20039;-80
2022/09/07 00:23:57;;;;;;;4.85;2.05;;;19.30;99.90;;;;;;5057060;28;20481;-80
2022/09/07 00:26:27;;;;;;;4.57;1.80;;;19.30;99.90;;;;;;5056180;28;20079;-80
2022/09/07 00:28:57;;;;;;;6.30;2.15;;;19.30;99.90;;;;;;5071291;28;20040;-80
2022/09/07 00:31:23;;;;;;;6.05;2.42;;;19.40;99.90;;;;;;5061943;28;20124;-80
2022/09/07 00:33:52;;;;;;;4.88;1.92;;;19.50;99.90;;;;;;5070602;28;20028;-79
2022/09/07 00:36:20;;;;;;;4.88;2.10;;;19.50;99.90;;;;;;5064624;28;20037;-79
2022/09/07 00:38:46;;;;;;;3.53;1.77;;;19.50;99.90;;;;;;5065881;28;20055;-79
2022/09/07 00:41:14;;;;;;;3.75;2.42;;;19.60;99.90;;;;;;5060611;28;20036;-80
2022/09/07 00:43:43;;;;;;;5.00;2.85;;;19.70;99.90;;;;;;5067783;28;20033;-80
2022/09/07 00:46:16;;;;;;;3.10;1.98;;;19.70;99.90;;;;;;5061082;28;20033;-81
2022/09/07 00:49:04;;;;;;;9.23;2.60;;;19.70;99.90;;;;;;5068026;28;20025;-80
2022/09/07 00:51:42;;;;;;;7.05;2.47;;;19.60;99.90;;;;;;5067397;28;20037;-80
2022/09/07 00:54:13;;;;;;;4.45;2.03;;;19.60;99.90;;;;;;5060896;28;20029;-81
2022/09/07 00:56:42;;;;;;;7.07;2.30;;;19.50;99.90;;;;;;5054022;28;20045;-80
2022/09/07 00:59:12;;;;;;;5.15;2.28;;;19.40;99.90;;;;;;5061167;28;20374;-82
2022/09/07 01:01:38;;;;;;;4.10;2.13;;;19.30;99.90;;;;;;5068365;28;20039;-80
2022/09/07 01:04:05;;;;;;;4.35;2.78;;;19.30;99.90;;;;;;5067298;28;20041;-86
2022/09/07 01:06:35;;;;;;;4.28;2.10;;;19.20;99.90;;;;;;5067558;28;20032;-79
2022/09/07 01:09:09;;;;;;;5.05;2.22;;;19.20;99.90;;;;;;5068082;28;20029;-81
2022/09/07 01:11:36;;;;;;;3.55;1.92;;;19.10;99.90;;;;;;5060699;28;20473;-81
2022/09/07 01:14:05;;;;;;;4.53;2.05;;;19.00;99.90;;;;;;5053544;28;20055;-81
2022/09/07 01:16:48;;;;;;;5.43;2.90;;;18.90;99.90;;;;;;5060783;28;20024;-83
2022/09/07 01:19:27;;;;;;;4.57;2.50;;;18.70;99.90;;;;;;5069348;28;20461;-82
2022/09/07 01:21:56;;;;;;;3.13;1.90;;;18.70;99.90;;;;;;5070489;28;20040;-81
2022/09/07 01:24:43;;;;;;;4.22;2.22;;;18.70;99.90;;;;;;5063213;28;20028;-81
2022/09/07 01:27:21;;;;;;;3.17;2.13;;;18.60;99.90;;;;;;5067644;28;20052;-84
2022/09/07 01:30:09;;;;;;;2.60;1.65;;;18.60;99.90;;;;;;5067670;28;20036;-81
2022/09/07 01:33:13;;;;;;;2.88;2.08;;;18.70;99.90;;;;;;5073964;28;20036;-81
2022/09/07 01:35:58;;;;;;;4.88;2.80;;;18.60;99.90;;;;;;5060234;28;20390;-81
2022/09/07 01:39:00;;;;;;;3.80;2.30;;;18.50;99.90;;;;;;5068827;28;20032;-82
2022/09/07 01:41:58;;;;;;;4.43;2.78;;;18.50;99.90;;;;;;5028392;28;20060;-81
2022/09/07 01:44:31;;;;;;;2.80;2.00;;;18.50;99.90;;;;;;5058563;28;20039;-81
2022/09/07 01:47:01;;;;;;;3.45;2.33;;;18.50;99.90;;;;;;5072471;28;20036;-81
2022/09/07 01:49:53;;;;;;;3.75;2.42;;;18.50;99.90;;;;;;5065140;28;20035;-80
2022/09/07 01:52:25;;;;;;;5.75;2.83;;;18.60;99.90;;;;;;5057471;28;20056;-82
2022/09/07 01:54:58;;;;;;;6.88;3.03;;;18.80;99.90;;;;;;5056583;28;20028;-79
2022/09/07 01:57:32;;;;;;;9.70;2.60;;;18.90;99.90;;;;;;5066493;28;20473;-80
2022/09/07 02:00:09;;;;;;;3.83;3.17;;;18.90;99.90;;;;;;5053744;28;20051;-79
2022/09/07 02:02:50;;;;;;;9.15;3.47;;;18.90;99.90;;;;;;5070560;28;20053;-82
2022/09/07 02:05:23;;;;;;;7.10;3.30;;;18.80;99.90;;;;;;5051818;28;20481;-81
2022/09/07 02:08:26;;;;;;;8.73;3.67;;;18.60;99.90;;;;;;5052396;28;20056;-80
2022/09/07 02:10:58;;;;;;;8.55;3.83;;;18.30;99.90;;;;;;5056466;28;20041;-80
2022/09/07 02:13:53;;;;;;;5.18;3.33;;;18.10;99.90;;;;;;5057744;28;20496;-79
2022/09/07 02:16:25;;;;;;;8.90;4.22;;;18.00;99.90;;;;;;5051423;28;20029;-79
2022/09/07 02:19:05;;;;;;;7.85;4.35;;;17.90;99.90;;;;;;5052289;28;20037;-80
2022/09/07 02:21:36;;;;;;;7.70;3.80;;;17.70;99.90;;;;;;5067703;28;20029;-80
2022/09/07 02:24:17;;;;;;;8.77;4.28;;;17.50;99.90;;;;;;5052462;28;20033;-79
2022/09/07 02:26:47;;;;;;;5.95;4.05;;;17.20;99.90;;;;;;5051829;28;20056;-76
2022/09/07 02:29:13;;;;;;;5.40;3.95;;;17.10;99.90;;;;;;5051012;28;20036;-78
2022/09/07 02:31:40;;;;;;;6.13;3.92;;;16.90;99.90;;;;;;5054494;28;20043;-75
2022/09/07 02:34:07;;;;;;;8.82;4.68;;;16.80;99.90;;;;;;5069411;28;20405;-77
2022/09/07 02:36:42;;;;;;;8.77;4.25;;;16.80;99.90;;;;;;5071290;28;20035;-78
2022/09/07 02:39:09;;;;;;;7.78;5.05;;;16.70;99.90;;;;;;5059630;28;20033;-84
2022/09/07 02:41:38;;;;;;;14.20;5.07;;;16.70;99.90;;;;;;5071527;28;20457;-76
2022/09/07 02:44:11;;;;;;;8.90;5.50;;;16.70;99.90;;;;;;5072341;28;20036;-77
2022/09/07 02:46:49;;;;;;;9.85;5.43;;;16.70;99.90;;;;;;5048508;28;20029;-76
2022/09/07 02:49:30;;;;;;;6.90;4.90;;;16.60;99.90;;;;;;5065573;28;20035;-77
2022/09/07 02:52:03;;;;;;;8.43;5.18;;;16.60;99.90;;;;;;5059056;28;20103;-76
2022/09/07 02:54:35;;;;;;;7.43;4.65;;;16.60;99.90;;;;;;5054156;28;20044;-77
2022/09/07 02:57:26;;;;;;;8.93;5.00;;;16.60;99.90;;;;;;5054041;28;20493;-76
2022/09/07 03:00:19;;;;;;;11.52;5.95;;;16.50;99.90;;;;;;5052226;28;20029;-77
2022/09/07 03:03:18;;;;;;;8.35;5.38;;;16.50;99.90;;;;;;5051608;28;20060;-76
2022/09/07 03:05:57;;;;;;;9.48;5.72;;;16.50;99.90;;;;;;5034948;28;20525;-77
2022/09/07 03:08:38;;;;;;;8.18;4.88;;;16.50;99.90;;;;;;5055290;28;20041;-77
2022/09/07 03:11:05;;;;;;;7.70;4.90;;;16.40;99.90;;;;;;5062746;28;20025;-76
2022/09/07 03:13:32;;;;;;;10.43;5.70;;;16.40;99.90;;;;;;5052015;28;20025;-77
2022/09/07 03:15:58;;;;;;;9.18;6.35;;;16.50;99.90;;;;;;5061636;28;20484;-77
2022/09/07 03:18:26;;;;;;;9.30;6.65;;;16.50;99.90;;;;;;5063683;28;20394;-77
2022/09/07 03:20:53;;;;;;;12.13;7.60;;;16.40;99.90;;;;;;5058557;28;20024;-77
2022/09/07 03:23:19;;;;;;;12.90;6.97;;;16.50;99.90;;;;;;5056582;28;20045;-77
2022/09/07 03:25:47;;;;;;;10.10;7.30;;;16.60;99.90;;;;;;5064244;28;20049;-78
2022/09/07 03:28:14;;;;;;;12.18;8.25;;;16.60;99.90;;;;;;5057667;28;20406;-78
2022/09/07 03:30:48;;;;;;;12.30;8.07;;;16.70;99.90;;;;;;5058211;28;20036;-77
2022/09/07 03:33:15;;;;;;;13.30;8.80;;;16.70;99.90;;;;;;5064456;28;20036;-77
2022/09/07 03:35:55;;;;;;;10.77;7.38;;;16.70;99.90;;;;;;5061338;28;20067;-77
2022/09/07 03:38:21;;;;;;;12.13;8.83;;;16.60;99.90;;;;;;5067604;28;20382;-77
2022/09/07 03:40:57;;;;;;;15.07;8.38;;;16.60;99.90;;;;;;5056110;28;20029;-77
2022/09/07 03:43:24;;;;;;;14.20;8.68;;;16.50;99.90;;;;;;5062525;28;20032;-77
2022/09/07 03:45:58;;;;;;;10.20;7.70;;;16.50;99.90;;;;;;5075989;28;20033;-77
2022/09/07 03:48:25;;;;;;;14.75;8.27;;;16.50;99.90;;;;;;5076331;28;20358;-77
2022/09/07 03:50:59;;;;;;;15.27;8.88;;;16.50;99.90;;;;;;5059406;28;20056;-76
2022/09/07 03:53:25;;;;;;;15.77;8.38;;;16.50;99.90;;;;;;5061557;28;20049;-77
2022/09/07 03:55:56;;;;;;;13.85;8.20;;;16.50;99.90;;;;;;5059301;28;20048;-78
2022/09/07 03:58:22;;;;;;;13.43;8.23;;;16.50;99.90;;;;;;5072260;28;20033;-77
2022/09/07 04:00:49;;;;;;;11.52;8.18;;;16.60;99.90;;;;;;5067986;28;20024;-77
2022/09/07 04:03:15;;;;;;;13.75;8.35;;;16.60;99.90;;;;;;5042180;28;20036;-79
2022/09/07 04:05:41;;;;;;;11.32;8.35;;;16.60;99.90;;;;;;5063337;28;20040;-78
2022/09/07 04:08:07;;;;;;;12.20;8.25;;;16.70;99.90;;;;;;5055945;28;20025;-78
2022/09/07 04:10:40;;;;;;;11.30;7.47;;;16.70;99.90;;;;;;5068429;28;20039;-77
2022/09/07 04:13:06;;;;;;;9.95;7.57;;;16.60;99.90;;;;;;5055368;28;20040;-78
2022/09/07 04:15:33;;;;;;;10.85;8.50;;;16.70;99.90;;;;;;5036993;28;20051;-78
2022/09/07 04:18:00;;;;;;;14.50;9.90;;;16.60;99.90;;;;;;5063946;28;20032;-80
2022/09/07 04:20:27;;;;;;;12.32;8.93;;;16.60;99.90;;;;;;5062526;28;20377;-78
2022/09/07 04:22:53;;;;;;;16.02;8.68;;;16.60;99.90;;;;;;5061056;28;20029;-78
2022/09/07 04:25:19;;;;;;;13.02;7.95;;;16.70;99.90;;;;;;5064514;28;20032;-78
2022/09/07 04:27:45;;;;;;;11.95;8.82;;;16.70;99.90;;;;;;5055978;28;20044;-79
2022/09/07 04:30:12;;;;;;;17.80;9.70;;;16.80;99.90;;;;;;5054778;28;20029;-86
2022/09/07 04:32:38;;;;;;;15.27;9.27;;;16.80;99.90;;;;;;5040044;28;20043;-78
2022/09/07 04:35:05;;;;;;;12.90;8.60;;;16.80;99.90;;;;;;5073851;28;20480;-78
2022/09/07 04:37:31;;;;;;;14.43;8.95;;;16.70;99.90;;;;;;5073522;28;20465;-78
2022/09/07 04:39:57;;;;;;;16.00;8.82;;;16.70;99.90;;;;;;5073778;28;20044;-78
2022/09/07 04:42:23;;;;;;;12.60;8.32;;;16.60;99.90;;;;;;5069008;28;20100;-78
2022/09/07 04:44:50;;;;;;;15.27;9.15;;;16.60;99.90;;;;;;5053629;28;20056;-78
2022/09/07 04:47:16;;;;;;;12.27;8.82;;;16.60;99.90;;;;;;5053679;28;20040;-85
2022/09/07 04:49:42;;;;;;;12.73;8.88;;;16.60;99.90;;;;;;5054889;28;20037;-78
2022/09/07 04:52:09;;;;;;;16.65;9.00;;;16.50;99.90;;;;;;5034896;28;20397;-79
2022/09/07 04:54:35;;;;;;;13.63;9.30;;;16.60;99.90;;;;;;5054937;28;20033;-78
2022/09/07 04:57:01;;;;;;;14.95;9.20;;;16.50;99.90;;;;;;5065126;28;20041;-79
2022/09/07 04:59:28;;;;;;;16.13;9.23;;;16.50;99.90;;;;;;5053183;28;20025;-78
2022/09/07 05:01:54;;;;;;;13.93;9.48;;;16.50;99.90;;;;;;5053363;28;20033;-78
2022/09/07 05:04:20;;;;;;;13.45;8.80;;;16.50;99.90;;;;;;5052869;28;20032;-79
2022/09/07 05:06:46;;;;;;;17.80;8.55;;;16.50;99.90;;;;;;5066827;28;20095;-78
2022/09/07 05:09:12;;;;;;;14.38;8.52;;;16.40;99.90;;;;;;5067038;28;20032;-78
2022/09/07 05:11:39;;;;;;;11.48;8.45;;;16.30;99.90;;;;;;5053498;28;20033;-78
2022/09/07 05:14:05;;;;;;;12.45;8.70;;;16.30;99.90;;;;;;5035197;28;20390;-78
2022/09/07 05:16:31;;;;;;;18.73;9.23;;;16.30;99.90;;;;;;5035831;28;20028;-79
2022/09/07 05:19:00;;;;;;;11.32;8.13;;;16.30;99.90;;;;;;5053412;28;20041;-77
2022/09/07 05:21:29;;;;;;;15.35;10.27;;;16.40;99.90;;;;;;5058182;28;20032;-78
2022/09/07 05:23:57;;;;;;;14.43;10.25;;;16.40;99.90;;;;;;5062195;28;20055;-78
2022/09/07 05:26:25;;;;;;;19.15;10.40;;;16.50;99.90;;;;;;5053180;28;20044;-78
2022/09/07 05:28:52;;;;;;;14.77;10.32;;;16.60;99.90;;;;;;5071211;28;20032;-77
2022/09/07 05:31:20;;;;;;;18.58;11.23;;;16.70;99.90;;;;;;5054922;28;20033;-84
2022/09/07 05:33:56;;;;;;;20.42;10.75;;;16.70;99.90;;;;;;5052278;28;20032;-77
2022/09/07 05:36:25;;;;;;;19.73;10.70;;;16.80;99.90;;;;;;5052432;28;20029;-77
2022/09/07 05:38:57;;;;;;;18.38;11.70;;;17.00;99.90;;;;;;5035854;28;20029;-77
2022/09/07 05:41:25;;;;;;;20.10;10.57;;;17.20;99.90;;;;;;5072072;28;20032;-79
2022/09/07 05:43:52;;;;;;;16.25;11.20;;;17.50;99.90;;;;;;5071197;28;20032;-78
2022/09/07 05:46:18;;;;;;;15.85;9.93;;;18.30;99.90;;;;;;5060473;28;20044;-87
2022/09/07 05:48:44;;;;;;;12.43;6.28;;;19.20;99.90;;;;;;5065268;28;20036;-79
2022/09/07 05:51:12;;;;;;;7.55;5.57;;;20.30;99.90;;;;;;5063499;28;20374;-79
2022/09/07 05:53:41;;;;;;;7.38;3.75;;;21.10;99.90;;;;;;5058043;28;20025;-80
2022/09/07 05:56:08;;;;;;;4.50;3.75;;;22.10;99.90;;;;;;5047319;28;20037;-80
2022/09/07 05:58:35;;;;;;;5.55;3.50;;;22.70;99.90;;;;;;5060165;28;20396;-79
2022/09/07 06:01:08;;;;;;;5.43;3.15;;;23.40;99.90;;;;;;5069090;28;20099;-81
2022/09/07 06:03:36;;;;;;;4.68;2.92;;;23.90;99.90;;;;;;5053106;28;20033;-79
2022/09/07 06:06:20;;;;;;;5.07;2.50;;;24.20;99.90;;;;;;5057601;28;20040;-80
2022/09/07 06:08:52;;;;;;;3.78;2.42;;;24.30;99.90;;;;;;5061989;28;20025;-80
2022/09/07 06:11:23;;;;;;;3.58;2.53;;;24.40;99.90;;;;;;5061868;28;20025;-86
2022/09/07 06:13:50;;;;;;;3.03;2.03;;;25.20;99.90;;;;;;5055330;28;20417;-81
2022/09/07 06:16:18;;;;;;;5.00;2.85;;;25.80;99.90;;;;;;5062313;28;20036;-85
2022/09/07 06:18:47;;;;;;;6.57;2.97;;;25.90;99.90;;;;;;5071465;28;20040;-80
2022/09/07 06:21:19;;;;;;;3.75;2.63;;;26.20;99.90;;;;;;5057450;28;20025;-81
2022/09/07 06:23:46;;;;;;;5.03;2.42;;;26.40;99.90;;;;;;5059900;28;20036;-81
2022/09/07 06:26:13;;;;;;;4.47;1.73;;;26.40;99.90;;;;;;5062386;28;20040;-80
2022/09/07 06:28:42;;;;;;;6.53;2.10;;;26.60;99.90;;;;;;5060526;28;20028;-82
2022/09/07 06:31:16;;;;;;;4.88;2.50;;;26.60;99.90;;;;;;5051906;28;20040;-80
2022/09/07 06:33:43;;;;;;;5.43;2.53;;;26.80;99.90;;;;;;5037603;28;20063;-81
2022/09/07 06:36:21;;;;;;;5.70;2.00;;;27.10;99.40;;;;;;5065710;28;20036;-82
2022/09/07 06:38:48;;;;;;;3.30;2.10;;;26.90;96.00;;;;;;5068853;28;20028;-82
2022/09/07 06:41:19;;;;;;;4.05;1.90;;;26.50;99.90;;;;;;5065369;28;20036;-83
2022/09/07 06:43:45;;;;;;;4.97;2.13;;;26.60;98.40;;;;;;5061989;28;20043;-83
2022/09/07 06:46:12;;;;;;;3.13;2.00;;;25.50;99.90;;;;;;5072003;28;20466;-82
2022/09/07 06:48:39;;;;;;;3.15;1.85;;;25.70;99.90;;;;;;5054230;28;20048;-82
2022/09/07 06:51:14;;;;;;;5.32;2.08;;;26.10;98.70;;;;;;5046742;28;20048;-82
2022/09/07 06:53:40;;;;;;;4.25;1.67;;;26.90;98.30;;;;;;5034520;28;20029;-82
2022/09/07 06:56:09;;;;;;;2.83;2.10;;;26.90;96.90;;;;;;5072318;28;20032;-83
2022/09/07 06:58:36;;;;;;;6.20;2.53;;;27.80;94.90;;;;;;5071830;28;20486;-84
2022/09/07 07:01:16;;;;;;;3.83;2.05;;;27.70;94.10;;;;;;5048586;28;20048;-83
2022/09/07 07:03:44;;;;;;;4.85;1.80;;;28.20;92.50;;;;;;5039859;28;20049;-85
2022/09/07 07:06:11;;;;;;;3.95;1.75;;;27.80;94.40;;;;;;5065889;28;20043;-86
2022/09/07 07:08:38;;;;;;;4.25;2.47;;;28.30;92.80;;;;;;5041464;28;20036;-84
2022/09/07 07:11:07;;;;;;;4.43;1.83;;;28.60;91.30;;;;;;5060717;28;20024;-84
2022/09/07 07:13:34;;;;;;;4.05;1.70;;;27.80;93.70;;;;;;5035517;28;20053;-84
2022/09/07 07:16:05;;;;;;;3.47;1.77;;;28.20;92.80;;;;;;5058930;28;20033;-84
2022/09/07 07:18:32;;;;;;;4.25;1.85;;;28.10;90.90;;;;;;5068522;28;20381;-85
2022/09/07 07:21:05;;;;;;;3.35;1.25;;;27.50;92.20;;;;;;5079016;28;20029;-85
2022/09/07 07:23:35;;;;;;;3.63;1.52;;;27.60;92.50;;;;;;5056819;28;20144;-85
2022/09/07 07:26:14;;;;;;;4.50;1.17;;;28.40;89.00;;;;;;5057822;28;20466;-85
2022/09/07 07:28:46;;;;;;;3.33;1.42;;;28.80;86.80;;;;;;5057932;28;20237;-84
2022/09/07 07:31:13;;;;;;;7.72;1.60;;;28.60;85.40;;;;;;5076436;28;20458;-84
2022/09/07 07:33:40;;;;;;;3.03;1.25;;;28.90;82.80;;;;;;5067992;28;20043;-84
2022/09/07 07:36:14;;;;;;;6.82;1.85;;;28.80;85.10;;;;;;5050335;28;20037;-86
2022/09/07 07:38:42;;;;;;;6.00;2.15;;;29.00;83.40;;;;;;5056457;28;20052;-86
2022/09/07 07:41:09;;;;;;;4.97;1.65;;;28.50;85.10;;;;;;5039080;28;20029;-86
2022/09/07 07:43:35;;;;;;;5.28;1.42;;;29.30;81.50;;;;;;5069800;28;20040;-86
2022/09/07 07:46:01;;;;;;;4.05;1.65;;;29.10;80.70;;;;;;5075676;28;20373;-84
2022/09/07 07:48:28;;;;;;;2.55;1.60;;;28.40;82.40;;;;;;5074029;28;20024;-84
2022/09/07 07:51:05;;;;;;;3.63;1.45;;;27.70;87.00;;;;;;5069580;28;20040;-83
2022/09/07 07:53:34;;;;;;;4.05;1.45;;;27.40;86.70;;;;;;5054923;28;20033;-83
2022/09/07 07:56:02;;;;;;;5.32;1.58;;;26.30;91.50;;;;;;5064468;28;20043;-83
2022/09/07 07:58:30;;;;;;;6.13;1.92;;;26.60;91.20;;;;;;5075104;28;20043;-83
2022/09/07 08:01:02;;;;;;;4.15;1.60;;;26.80;91.50;;;;;;5040685;28;20055;-84
2022/09/07 08:03:29;;;;;;;3.20;1.45;;;26.90;90.30;;;;;;5055380;28;20040;-84
2022/09/07 08:06:03;;;;;;;3.67;0.95;;;27.10;89.80;;;;;;5040836;28;20044;-83
2022/09/07 08:08:29;;;;;;;3.45;1.23;;;27.50;88.10;;;;;;5061129;28;20053;-83
2022/09/07 08:10:56;;;;;;;2.65;1.08;;;26.70;91.10;;;;;;5067474;28;20043;-83
2022/09/07 08:13:22;;;;;;;4.00;1.27;;;27.50;87.50;;;;;;5062938;28;20032;-84
2022/09/07 08:15:48;;;;;;;3.58;1.33;;;28.50;82.80;;;;;;5058333;28;20037;-83
2022/09/07 08:18:16;;;;;;;2.15;1.08;;;28.30;82.60;;;;;;5074390;28;20462;-83
2022/09/07 08:20:42;;;;;;;5.53;1.27;;;28.60;79.40;;;;;;5055901;28;20473;-83
2022/09/07 08:23:09;;;;;;;5.05;1.75;;;28.40;81.30;;;;;;5062194;28;20040;-83
2022/09/07 08:25:35;;;;;;;8.73;1.13;;;28.10;81.10;;;;;;5047514;28;20049;-83
2022/09/07 08:28:02;;;;;;;5.43;1.80;;;28.70;78.90;;;;;;5074475;28;20389;-84
2022/09/07 08:30:29;;;;;;;5.72;2.05;;;29.30;75.40;;;;;;5036684;28;20394;-84
2022/09/07 08:32:55;;;;;;;3.38;1.20;;;29.30;76.50;;;;;;5067105;28;20033;-82
2022/09/07 08:35:21;;;;;;;5.13;1.30;;;29.00;75.80;;;;;;5049204;28;20024;-83
2022/09/07 08:37:47;;;;;;;2.20;1.02;;;28.50;77.30;;;;;;5055427;28;20044;-83
2022/09/07 08:40:17;;;;;;;5.07;1.33;;;28.70;80.80;;;;;;5049808;28;20033;-81
2022/09/07 08:43:10;;;;;;;4.03;1.10;;;28.80;77.30;;;;;;5035086;28;20250;-81
2022/09/07 08:45:45;;;;;;;5.35;1.30;;;28.70;77.10;;;;;;5061055;28;20504;-80
2022/09/07 08:48:17;;;;;;;2.83;1.40;;;28.90;76.20;;;;;;5055151;28;20039;-81
2022/09/07 08:50:50;;;;;;;3.10;1.33;;;29.30;75.20;;;;;;5044029;28;20381;-82
2022/09/07 08:53:18;;;;;;;4.07;1.45;;;28.30;75.90;;;;;;5072476;28;20204;-83
2022/09/07 08:56:14;;;;;;;3.40;1.60;;;28.10;79.40;;;;;;5073382;28;20048;-83
2022/09/07 08:58:50;;;;;;;3.83;1.15;;;28.10;79.90;;;;;;5067630;28;20327;-83
2022/09/07 09:01:39;;;;;;;3.03;1.40;;;28.10;80.90;;;;;;5063921;28;20032;-84
2022/09/07 09:04:11;;;;;;;;;;;28.20;79.30;;;;;;5070385;28;20029;-83
2022/09/07 09:06:40;;;;;;;2.45;1.25;;;27.60;82.00;;;;;;5042233;28;19913;-83
2022/09/07 09:09:24;;;;;;;2.03;1.20;;;27.50;80.30;;;;;;5039578;28;20049;-82
2022/09/07 09:12:45;;;;;;;2.33;0.68;;;26.80;83.60;;;;;;5054332;28;20044;-82
2022/09/07 09:15:20;;;;;;;4.50;1.15;;;26.30;85.20;;;;;;5063211;28;20060;-81
2022/09/07 09:18:12;;;;;;;3.35;0.98;;;26.70;85.60;;;;;;5057536;28;20382;-82
2022/09/07 09:20:52;;;;;;;5.90;1.20;;;26.90;86.40;;;;;;5045247;28;20041;-82
2022/09/07 09:23:25;;;;;;;3.33;1.27;;;28.10;84.10;;;;;;5044514;28;20049;-82
2022/09/07 09:26:08;;;;;;;4.80;1.15;;;29.00;77.70;;;;;;5061439;28;20083;-80
2022/09/07 09:28:35;;;;;;;4.45;1.60;;;29.90;73.20;;;;;;5077247;28;20041;-81
2022/09/07 09:31:01;;;;;;;3.33;1.30;;;28.90;72.30;;;;;;5082957;28;20412;-81
2022/09/07 09:33:29;;;;;;;2.88;0.85;;;28.60;77.00;;;;;;5075619;28;20052;-81
2022/09/07 09:35:58;;;;;;;4.45;1.30;;;28.20;76.80;;;;;;5088100;28;20468;-82
2022/09/07 09:38:35;;;;;;;;;;;27.40;78.00;;;;;;5090002;28;20039;-82
2022/09/07 09:41:10;;;;;;;4.43;1.17;;;27.60;80.00;;;;;;5066640;28;19916;-82
2022/09/07 09:44:10;;;;;;;2.10;1.00;;;27.50;78.30;;;;;;5092027;28;20050;-82
2022/09/07 09:46:36;;;;;;;4.95;1.17;;;28.00;77.50;;;;;;5095918;28;20036;-81
2022/09/07 09:49:05;;;;;;;3.17;1.45;;;27.70;76.50;;;;;;5086391;28;20036;-81
2022/09/07 09:51:34;;;;;;;2.97;0.80;;;26.70;79.60;;;;;;5080817;28;20046;-82
2022/09/07 09:54:19;;;;;;;;;;;26.30;82.70;;;;;;5087135;28;20044;-80
2022/09/07 09:56:46;;;;;;;3.15;1.20;;;26.40;84.30;;;;;;5076636;28;19919;-81
2022/09/07 09:59:26;;;;;;;1.95;1.15;;;26.60;83.60;;;;;;5055895;28;20041;-80
2022/09/07 10:01:52;;;;;;;1.65;0.75;;;26.80;82.20;;;;;;5073240;28;20032;-81
2022/09/07 10:04:23;;;;;;;3.15;1.00;;;27.10;82.10;;;;;;5071924;28;20044;-81
2022/09/07 10:07:03;;;;;;;4.18;1.52;;;27.30;78.40;;;;;;5085150;28;20031;-82
2022/09/07 10:09:41;;;;;;;3.15;1.20;;;27.30;80.20;;;;;;5101739;28;20047;-82
2022/09/07 10:12:29;;;;;;;3.10;1.10;;;27.30;80.00;;;;;;5070942;28;20036;-82
2022/09/07 10:14:57;;;;;;;4.37;1.47;;;27.00;83.10;;;;;;5051396;28;20045;-81
2022/09/07 10:17:46;;;;;;;2.40;1.08;;;27.10;81.20;;;;;;5069695;28;20037;-82
2022/09/07 10:20:15;;;;;;;3.47;1.52;;;27.00;81.10;;;;;;5064213;28;20048;-81
2022/09/07 10:22:50;;;;;;;3.05;1.17;;;26.60;83.00;;;;;;5062144;28;20040;-81
2022/09/07 10:25:35;;;;;;;2.63;1.40;;;26.30;84.50;;;;;;5050388;28;20049;-80
2022/09/07 10:28:08;;;;;;;1.85;1.27;;;26.30;87.70;;;;;;5067466;28;20049;-80
2022/09/07 10:30:49;;;;;;;4.47;1.20;;;26.80;83.60;;;;;;5058457;28;20049;-81
2022/09/07 10:33:27;;;;;;;3.20;1.00;;;26.60;85.00;;;;;;5051133;28;20052;-80
2022/09/07 10:36:33;;;;;;;5.22;1.75;;;26.80;84.30;;;;;;5052097;28;20518;-82
2022/09/07 10:39:05;;;;;;;4.30;1.80;;;26.80;82.20;;;;;;5054142;28;20036;-82
2022/09/07 10:41:51;;;;;;;3.30;1.20;;;26.70;84.90;;;;;;5067299;28;20494;-83
2022/09/07 10:44:46;;;;;;;3.45;1.10;;;26.80;84.40;;;;;;5052342;28;20049;-81
2022/09/07 10:47:43;;;;;;;3.67;1.25;;;26.90;83.20;;;;;;5091946;28;20061;-80
2022/09/07 10:50:35;;;;;;;4.65;1.55;;;26.80;82.90;;;;;;5073175;28;20055;-80
2022/09/07 10:53:03;;;;;;;2.50;0.98;;;26.60;83.90;;;;;;5085016;28;20024;-81
2022/09/07 10:55:31;;;;;;;4.73;1.07;;;26.90;85.90;;;;;;5081280;28;20063;-82
2022/09/07 10:58:09;;;;;;;5.95;1.60;;;27.20;82.00;;;;;;5078195;28;20047;-81
2022/09/07 11:01:17;;;;;;;5.85;1.42;;;27.30;81.40;;;;;;5073476;28;20044;-81
2022/09/07 11:04:31;;;;;;;4.13;1.20;;;27.20;81.10;;;;;;5024994;28;20493;-80
2022/09/07 11:07:17;;;;;;;3.45;1.40;;;27.30;80.90;;;;;;5008829;28;20043;-81
2022/09/07 11:09:58;;;;;;;2.92;1.27;;;27.10;78.30;;;;;;5078927;28;20051;-81
2022/09/07 11:12:29;;;;;;;5.10;1.17;;;27.00;80.50;;;;;;5076847;28;20028;-81
2022/09/07 11:15:11;;;;;;;2.55;1.13;;;27.30;80.20;;;;;;5091339;28;20032;-80
2022/09/07 11:17:48;;;;;;;5.10;1.33;;;27.50;76.50;;;;;;5077313;28;20036;-81
2022/09/07 11:20:23;;;;;;;2.72;1.50;;;27.50;74.90;;;;;;5073288;28;20037;-81
2022/09/07 11:23:07;;;;;;;4.80;1.00;;;27.50;73.20;;;;;;5070111;28;20469;-81
2022/09/07 11:25:59;;;;;;;2.80;1.00;;;28.00;70.00;;;;;;5067015;28;20061;-81
2022/09/07 11:28:45;;;;;;;1.58;0.98;;;28.40;70.80;;;;;;5052213;28;20056;-80
2022/09/07 11:31:31;;;;;;;2.58;0.90;;;28.40;71.70;;;;;;5041510;28;20040;-81
2022/09/07 11:34:01;;;;;;;2.05;0.95;;;28.80;70.60;;;;;;5047374;28;20485;-81
2022/09/07 11:36:37;;;;;;;3.17;1.10;;;29.00;69.20;;;;;;5053152;28;20040;-81
2022/09/07 11:39:11;;;;;;;5.00;1.30;;;28.50;71.10;;;;;;5070838;28;20040;-82
2022/09/07 11:42:01;;;;;;;4.65;1.35;;;28.00;72.30;;;;;;5053461;28;20668;-82
2022/09/07 11:44:45;;;;;;;2.92;1.05;;;27.30;72.10;;;;;;5051833;28;20045;-81
2022/09/07 11:47:28;;;;;;;4.18;0.93;;;27.10;70.90;;;;;;5033512;28;20041;-81
2022/09/07 11:49:54;;;;;;;1.42;1.10;;;27.30;69.60;;;;;;5046368;28;20033;-81
2022/09/07 11:52:35;;;;;;;1.70;1.05;;;27.30;68.40;;;;;;5050412;28;20444;-81
2022/09/07 11:55:18;;;;;;;2.67;0.82;;;27.10;69.50;;;;;;5018369;28;20040;-81
2022/09/07 11:58:03;;;;;;;2.03;0.73;;;27.30;70.60;;;;;;5078086;28;20381;-80
2022/09/07 12:00:58;;;;;;;3.33;1.27;;;27.80;68.90;;;;;;5056849;28;20041;-81
2022/09/07 12:03:44;;;;;;;4.30;1.33;;;28.00;67.70;;;;;;5005008;28;20047;-81
2022/09/07 12:06:29;;;;;;;1.77;0.98;;;27.70;68.50;;;;;;5037849;28;20418;-82
2022/09/07 12:09:14;;;;;;;3.70;1.23;;;27.20;68.60;;;;;;5029991;28;20048;-80
2022/09/07 12:12:11;;;;;;;4.05;1.20;;;26.90;71.00;;;;;;5035569;28;20036;-81
2022/09/07 12:14:56;;;;;;;3.47;1.00;;;26.70;69.00;;;;;;5051824;28;20052;-81
2022/09/07 12:17:34;;;;;;;2.50;0.93;;;26.80;69.60;;;;;;5056268;28;20055;-81
2022/09/07 12:20:16;;;;;;;2.15;0.90;;;26.70;69.80;;;;;;5074258;28;20040;-81
2022/09/07 12:23:05;;;;;;;1.92;1.00;;;26.50;70.30;;;;;;5053015;28;20033;-82
2022/09/07 12:25:33;;;;;;;3.40;1.50;;;26.40;72.00;;;;;;5037159;28;20513;-80
2022/09/07 12:28:00;;;;;;;2.50;1.30;;;26.40;72.30;;;;;;5059987;28;20037;-81
2022/09/07 12:30:27;;;;;;;1.70;0.80;;;26.70;71.50;;;;;;5054030;28;20072;-81
2022/09/07 12:33:17;;;;;;;3.63;1.20;;;27.00;70.20;;;;;;5072008;28;20033;-81
2022/09/07 12:35:43;;;;;;;2.60;1.20;;;27.50;67.70;;;;;;5043059;28;20033;-81
2022/09/07 12:38:12;;;;;;;2.47;0.90;;;27.70;65.80;;;;;;5019996;28;20048;-82
2022/09/07 12:40:47;;;;;;;4.03;1.40;;;27.80;65.40;;;;;;5054100;28;20040;-81
2022/09/07 12:43:13;;;;;;;2.58;1.02;;;27.70;64.30;;;;;;5053122;28;20033;-82
2022/09/07 12:45:40;;;;;;;1.60;0.60;;;27.30;63.60;;;;;;5047826;28;20520;-81
2022/09/07 12:48:15;;;;;;;1.33;0.55;;;27.00;64.30;;;;;;5043440;28;20487;-82
2022/09/07 12:50:57;;;;;;;1.48;0.90;;;26.80;63.40;;;;;;5066550;28;20029;-81
2022/09/07 12:53:28;;;;;;;0.95;0.73;;;26.90;63.90;;;;;;5058070;28;20032;-80
2022/09/07 12:56:16;;;;;;;5.60;1.20;;;27.60;62.80;;;;;;5050169;28;20250;-81
2022/09/07 12:58:54;;;;;;;6.22;0.93;;;28.30;60.80;;;;;;5072521;28;20028;-81
2022/09/07 13:01:35;;;;;;;3.60;0.80;;;28.90;57.70;;;;;;5070564;28;20040;-81
2022/09/07 13:04:40;;;;;;;2.55;0.90;;;28.40;59.60;;;;;;5062108;28;20390;-81
2022/09/07 13:07:17;;;;;;;1.42;0.98;;;27.60;63.60;;;;;;5035203;28;20045;-81
2022/09/07 13:09:58;;;;;;;1.60;1.05;;;27.20;63.30;;;;;;5054800;28;20039;-82
2022/09/07 13:12:34;;;;;;;2.95;1.00;;;27.00;63.60;;;;;;5053850;28;20037;-81
2022/09/07 13:15:00;;;;;;;1.63;0.70;;;27.10;64.20;;;;;;5054986;28;20397;-82
2022/09/07 13:17:33;;;;;;;2.20;0.88;;;27.60;62.00;;;;;;5055311;28;20052;-81
2022/09/07 13:19:59;;;;;;;2.30;0.80;;;27.70;63.10;;;;;;5032104;28;20037;-82